sensor_id;sensor_type;location;lat;lon;timestamp;pressure;altitude;pressure_sealevel;temperature;humidity
55604;BME280;41468;48.838;9.330;2023-04-03T00:02:01;99079.44;;;5.10;69.63
55604;BME280;41468;48.838;9.330;2023-04-03T00:04:28;99072.59;;;5.13;70.52
55604;BME280;41468;48.838;9.330;2023-04-03T00:06:54;99079.63;;;5.14;70.59
55604;BME280;41468;48.838;9.330;2023-04-03T00:09:21;99076.59;;;5.15;69.89
55604;BME280;41468;48.838;9.330;2023-04-03T00:11:48;99080.28;;;5.19;70.15
55604;BME280;41468;48.838;9.330;2023-04-03T00:14:15;99076.59;;;5.15;70.18
55604;BME280;41468;48.838;9.330;2023-04-03T00:16:41;99081.38;;;5.18;69.28
55604;BME280;41468;48.838;9.330;2023-04-03T00:19:08;99077.69;;;5.05;68.95
55604;BME280;41468;48.838;9.330;2023-04-03T00:21:43;99082.75;;;5.07;69.41
55604;BME280;41468;48.838;9.330;2023-04-03T00:24:11;99083.63;;;5.16;69.60
55604;BME280;41468;48.838;9.330;2023-04-03T00:26:37;99081.38;;;5.18;69.76
55604;BME280;41468;48.838;9.330;2023-04-03T00:29:10;99076.25;;;5.08;70.00
55604;BME280;41468;48.838;9.330;2023-04-03T00:31:37;99080.91;;;5.16;68.75
55604;BME280;41468;48.838;9.330;2023-04-03T00:34:04;99079.63;;;5.14;70.06
55604;BME280;41468;48.838;9.330;2023-04-03T00:36:30;99077.44;;;4.93;69.84
55604;BME280;41468;48.838;9.330;2023-04-03T00:38:57;99080.59;;;5.18;70.11
55604;BME280;41468;48.838;9.330;2023-04-03T00:41:24;99076.13;;;5.13;70.33
55604;BME280;41468;48.838;9.330;2023-04-03T00:43:51;99088.03;;;5.12;70.84
55604;BME280;41468;48.838;9.330;2023-04-03T00:46:18;99077.03;;;5.00;70.90
55604;BME280;41468;48.838;9.330;2023-04-03T00:48:47;99084.06;;;4.78;70.27
55604;BME280;41468;48.838;9.330;2023-04-03T00:51:17;99082.84;;;4.84;71.55
55604;BME280;41468;48.838;9.330;2023-04-03T00:53:47;99081.66;;;4.77;69.75
55604;BME280;41468;48.838;9.330;2023-04-03T00:56:21;99077.91;;;4.86;71.32
55604;BME280;41468;48.838;9.330;2023-04-03T00:58:54;99073.94;;;4.93;71.60
55604;BME280;41468;48.838;9.330;2023-04-03T01:01:25;99068.81;;;4.82;71.21
55604;BME280;41468;48.838;9.330;2023-04-03T01:03:53;99076.44;;;4.80;71.62
55604;BME280;41468;48.838;9.330;2023-04-03T01:06:23;99070.09;;;4.85;71.75
55604;BME280;41468;48.838;9.330;2023-04-03T01:08:51;99080.75;;;4.81;71.83
55604;BME280;41468;48.838;9.330;2023-04-03T01:11:18;99080.50;;;4.69;71.36
55604;BME280;41468;48.838;9.330;2023-04-03T01:13:47;99067.22;;;4.81;71.47
55604;BME280;41468;48.838;9.330;2023-04-03T01:16:13;99073.81;;;4.67;71.89
55604;BME280;41468;48.838;9.330;2023-04-03T01:18:40;99070.69;;;4.73;70.89
55604;BME280;41468;48.838;9.330;2023-04-03T01:21:30;99078.19;;;4.54;71.54
55604;BME280;41468;48.838;9.330;2023-04-03T01:24:21;99075.84;;;4.61;71.19
55604;BME280;41468;48.838;9.330;2023-04-03T01:26:48;99074.00;;;4.48;70.69
55604;BME280;41468;48.838;9.330;2023-04-03T01:29:16;99081.25;;;4.61;69.84
55604;BME280;41468;48.838;9.330;2023-04-03T01:31:47;99075.09;;;4.69;71.19
55604;BME280;41468;48.838;9.330;2023-04-03T01:34:15;99079.41;;;4.70;70.28
55604;BME280;41468;48.838;9.330;2023-04-03T01:36:41;99079.25;;;4.75;68.10
55604;BME280;41468;48.838;9.330;2023-04-03T01:39:09;99075.09;;;4.69;68.21
55604;BME280;41468;48.838;9.330;2023-04-03T01:41:36;99074.59;;;4.67;67.53
55604;BME280;41468;48.838;9.330;2023-04-03T01:44:03;99076.22;;;4.68;67.34
55604;BME280;41468;48.838;9.330;2023-04-03T01:46:30;99072.19;;;4.57;68.13
55604;BME280;41468;48.838;9.330;2023-04-03T01:49:02;99081.63;;;4.68;68.34
55604;BME280;41468;48.838;9.330;2023-04-03T01:51:39;99077.84;;;4.78;66.99
55604;BME280;41468;48.838;9.330;2023-04-03T01:54:16;99081.25;;;4.61;66.47
55604;BME280;41468;48.838;9.330;2023-04-03T01:56:43;99085.63;;;4.48;67.97
55604;BME280;41468;48.838;9.330;2023-04-03T01:59:10;99086.44;;;4.49;66.67
55604;BME280;41468;48.838;9.330;2023-04-03T02:01:36;99077.75;;;4.60;66.27
55604;BME280;41468;48.838;9.330;2023-04-03T02:04:03;99084.22;;;4.51;66.87
55604;BME280;41468;48.838;9.330;2023-04-03T02:06:30;99085.50;;;4.53;67.98
55604;BME280;41468;48.838;9.330;2023-04-03T02:08:56;99082.50;;;4.55;67.49
55604;BME280;41468;48.838;9.330;2023-04-03T02:11:23;99077.38;;;4.53;67.22
55604;BME280;41468;48.838;9.330;2023-04-03T02:13:50;99080.28;;;4.57;67.50
55604;BME280;41468;48.838;9.330;2023-04-03T02:16:16;99082.38;;;4.60;67.14
55604;BME280;41468;48.838;9.330;2023-04-03T02:18:43;99081.38;;;4.56;67.63
55604;BME280;41468;48.838;9.330;2023-04-03T02:21:10;99085.63;;;4.48;68.45
55604;BME280;41468;48.838;9.330;2023-04-03T02:23:37;99081.34;;;4.47;69.04
55604;BME280;41468;48.838;9.330;2023-04-03T02:26:09;99081.34;;;4.47;69.09
55604;BME280;41468;48.838;9.330;2023-04-03T02:28:37;99086.16;;;4.59;68.22
55604;BME280;41468;48.838;9.330;2023-04-03T02:31:04;99085.44;;;4.45;69.64
55604;BME280;41468;48.838;9.330;2023-04-03T02:33:33;99085.94;;;4.47;70.31
55604;BME280;41468;48.838;9.330;2023-04-03T02:36:07;99083.38;;;4.41;70.63
55604;BME280;41468;48.838;9.330;2023-04-03T02:38:34;99088.41;;;4.34;70.37
55604;BME280;41468;48.838;9.330;2023-04-03T02:41:06;99086.44;;;4.49;70.84
55604;BME280;41468;48.838;9.330;2023-04-03T02:43:34;99083.41;;;4.50;70.19
55604;BME280;41468;48.838;9.330;2023-04-03T02:46:01;99088.19;;;4.53;71.75
55604;BME280;41468;48.838;9.330;2023-04-03T02:48:28;99084.88;;;4.56;70.96
55604;BME280;41468;48.838;9.330;2023-04-03T02:50:55;99093.94;;;4.52;71.27
55604;BME280;41468;48.838;9.330;2023-04-03T02:53:22;99092.09;;;4.38;71.25
55604;BME280;41468;48.838;9.330;2023-04-03T02:55:49;99090.13;;;4.53;70.78
55604;BME280;41468;48.838;9.330;2023-04-03T02:58:16;99088.78;;;4.41;70.97
55604;BME280;41468;48.838;9.330;2023-04-03T03:00:43;99090.81;;;4.36;70.82
55604;BME280;41468;48.838;9.330;2023-04-03T03:03:10;99088.19;;;4.53;69.99
55604;BME280;41468;48.838;9.330;2023-04-03T03:05:36;99090.72;;;4.50;68.92
55604;BME280;41468;48.838;9.330;2023-04-03T03:08:03;99088.81;;;4.50;70.43
55604;BME280;41468;48.838;9.330;2023-04-03T03:10:30;99093.44;;;4.50;70.28
55604;BME280;41468;48.838;9.330;2023-04-03T03:12:56;99092.19;;;4.56;69.86
55604;BME280;41468;48.838;9.330;2023-04-03T03:15:23;99090.50;;;4.60;68.89
55604;BME280;41468;48.838;9.330;2023-04-03T03:17:50;99090.34;;;4.42;68.99
55604;BME280;41468;48.838;9.330;2023-04-03T03:20:16;99090.34;;;4.42;68.86
55604;BME280;41468;48.838;9.330;2023-04-03T03:22:43;99087.03;;;4.46;68.64
55604;BME280;41468;48.838;9.330;2023-04-03T03:25:10;99091.22;;;4.52;68.43
55604;BME280;41468;48.838;9.330;2023-04-03T03:27:37;99095.81;;;4.51;67.91
55604;BME280;41468;48.838;9.330;2023-04-03T03:30:04;99093.88;;;4.65;67.73
55604;BME280;41468;48.838;9.330;2023-04-03T03:32:32;99087.66;;;4.65;67.17
55604;BME280;41468;48.838;9.330;2023-04-03T03:34:58;99085.81;;;4.52;67.77
55604;BME280;41468;48.838;9.330;2023-04-03T03:37:36;99091.22;;;4.52;67.79
55604;BME280;41468;48.838;9.330;2023-04-03T03:40:03;99085.69;;;4.57;67.47
55604;BME280;41468;48.838;9.330;2023-04-03T03:42:29;99092.44;;;4.68;66.82
55604;BME280;41468;48.838;9.330;2023-04-03T03:44:56;99095.94;;;4.69;66.85
55604;BME280;41468;48.838;9.330;2023-04-03T03:47:23;99096.56;;;4.65;65.77
55604;BME280;41468;48.838;9.330;2023-04-03T03:49:50;99089.88;;;4.63;66.57
55604;BME280;41468;48.838;9.330;2023-04-03T03:52:17;99087.34;;;4.67;66.28
55604;BME280;41468;48.838;9.330;2023-04-03T03:54:44;99089.13;;;4.71;66.68
55604;BME280;41468;48.838;9.330;2023-04-03T03:57:11;99096.38;;;4.62;66.26
55604;BME280;41468;48.838;9.330;2023-04-03T03:59:37;99093.91;;;4.74;66.32
55604;BME280;41468;48.838;9.330;2023-04-03T04:02:15;99096.31;;;4.76;65.73
55604;BME280;41468;48.838;9.330;2023-04-03T04:04:43;99098.69;;;4.77;65.01
55604;BME280;41468;48.838;9.330;2023-04-03T04:07:09;99098.69;;;4.77;64.88
55604;BME280;41468;48.838;9.330;2023-04-03T04:09:36;99096.84;;;4.86;64.30
55604;BME280;41468;48.838;9.330;2023-04-03T04:12:03;99094.75;;;4.83;64.72
55604;BME280;41468;48.838;9.330;2023-04-03T04:14:30;99100.31;;;4.78;64.14
55604;BME280;41468;48.838;9.330;2023-04-03T04:16:56;99093.03;;;4.87;64.42
55604;BME280;41468;48.838;9.330;2023-04-03T04:19:34;99095.44;;;4.89;64.48
55604;BME280;41468;48.838;9.330;2023-04-03T04:22:00;99095.38;;;4.80;65.09
55604;BME280;41468;48.838;9.330;2023-04-03T04:24:27;99086.84;;;4.96;62.29
55604;BME280;41468;48.838;9.330;2023-04-03T04:26:54;99086.16;;;4.81;62.71
55604;BME280;41468;48.838;9.330;2023-04-03T04:29:20;99082.38;;;4.91;61.65
55604;BME280;41468;48.838;9.330;2023-04-03T04:31:47;99100.47;;;4.82;60.52
55604;BME280;41468;48.838;9.330;2023-04-03T04:34:14;99091.25;;;4.83;63.59
55604;BME280;41468;48.838;9.330;2023-04-03T04:36:41;99091.25;;;4.83;62.90
55604;BME280;41468;48.838;9.330;2023-04-03T04:39:08;99091.31;;;4.69;62.47
55604;BME280;41468;48.838;9.330;2023-04-03T04:41:35;99091.69;;;4.76;62.38
55604;BME280;41468;48.838;9.330;2023-04-03T04:44:12;99088.88;;;4.81;62.89
55604;BME280;41468;48.838;9.330;2023-04-03T04:46:50;99092.41;;;4.91;62.59
55604;BME280;41468;48.838;9.330;2023-04-03T04:49:16;99100.31;;;4.78;62.42
55604;BME280;41468;48.838;9.330;2023-04-03T04:51:43;99099.38;;;4.83;62.77
55604;BME280;41468;48.838;9.330;2023-04-03T04:54:17;99101.22;;;4.74;63.85
55604;BME280;41468;48.838;9.330;2023-04-03T04:56:44;99102.31;;;4.73;64.56
55604;BME280;41468;48.838;9.330;2023-04-03T04:59:11;99102.41;;;4.59;65.14
55604;BME280;41468;48.838;9.330;2023-04-03T05:01:38;99102.31;;;4.73;65.69
55604;BME280;41468;48.838;9.330;2023-04-03T05:04:05;99110.44;;;4.73;66.16
55604;BME280;41468;48.838;9.330;2023-04-03T05:06:32;99109.19;;;4.70;66.65
55604;BME280;41468;48.838;9.330;2023-04-03T05:08:59;99109.03;;;4.75;66.16
55604;BME280;41468;48.838;9.330;2023-04-03T05:11:26;99105.97;;;4.68;66.81
55604;BME280;41468;48.838;9.330;2023-04-03T05:14:04;99113.34;;;4.76;66.46
55604;BME280;41468;48.838;9.330;2023-04-03T05:16:43;99110.59;;;4.68;67.19
55604;BME280;41468;48.838;9.330;2023-04-03T05:19:10;99111.72;;;4.75;66.38
55604;BME280;41468;48.838;9.330;2023-04-03T05:21:47;99116.59;;;4.64;67.30
55604;BME280;41468;48.838;9.330;2023-04-03T05:24:15;99116.97;;;4.72;67.78
55604;BME280;41468;48.838;9.330;2023-04-03T05:26:43;99122.56;;;4.75;66.76
55604;BME280;41468;48.838;9.330;2023-04-03T05:29:10;99124.97;;;4.77;65.73
55604;BME280;41468;48.838;9.330;2023-04-03T05:31:41;99127.97;;;4.75;66.01
55604;BME280;41468;48.838;9.330;2023-04-03T05:34:08;99119.50;;;4.68;66.03
55604;BME280;41468;48.838;9.330;2023-04-03T05:36:35;99127.63;;;4.68;65.84
55604;BME280;41468;48.838;9.330;2023-04-03T05:39:02;99127.28;;;4.70;66.60
55604;BME280;41468;48.838;9.330;2023-04-03T05:41:29;99134.63;;;4.69;65.30
55604;BME280;41468;48.838;9.330;2023-04-03T05:43:56;99131.41;;;4.67;65.06
55604;BME280;41468;48.838;9.330;2023-04-03T05:46:22;99135.59;;;4.51;65.71
55604;BME280;41468;48.838;9.330;2023-04-03T05:48:49;99131.81;;;4.52;65.27
55604;BME280;41468;48.838;9.330;2023-04-03T05:51:22;99136.59;;;4.55;66.04
55604;BME280;41468;48.838;9.330;2023-04-03T05:54:02;99138.13;;;4.47;65.18
55604;BME280;41468;48.838;9.330;2023-04-03T05:56:31;99127.97;;;4.53;66.67
55604;BME280;41468;48.838;9.330;2023-04-03T05:58:57;99142.53;;;4.43;66.78
55604;BME280;41468;48.838;9.330;2023-04-03T06:01:25;99136.66;;;4.63;65.73
55604;BME280;41468;48.838;9.330;2023-04-03T06:03:51;99139.66;;;4.62;66.37
55604;BME280;41468;48.838;9.330;2023-04-03T06:06:18;99143.47;;;4.61;65.84
55604;BME280;41468;48.838;9.330;2023-04-03T06:08:45;99148.88;;;4.61;66.04
55604;BME280;41468;48.838;9.330;2023-04-03T06:11:12;99143.59;;;4.78;65.95
55604;BME280;41468;48.838;9.330;2023-04-03T06:13:39;99149.97;;;4.82;66.67
55604;BME280;41468;48.838;9.330;2023-04-03T06:16:06;99150.84;;;4.92;65.33
55604;BME280;41468;48.838;9.330;2023-04-03T06:18:32;99156.59;;;4.99;64.47
55604;BME280;41468;48.838;9.330;2023-04-03T06:20:59;99155.41;;;4.82;65.56
55604;BME280;41468;48.838;9.330;2023-04-03T06:23:27;99154.66;;;4.91;65.85
55604;BME280;41468;48.838;9.330;2023-04-03T06:26:00;99160.31;;;4.80;65.49
55604;BME280;41468;48.838;9.330;2023-04-03T06:28:26;99162.50;;;5.01;63.98
55604;BME280;41468;48.838;9.330;2023-04-03T06:30:53;99170.28;;;4.71;65.59
55604;BME280;41468;48.838;9.330;2023-04-03T06:33:20;99169.53;;;4.79;65.81
55604;BME280;41468;48.838;9.330;2023-04-03T06:35:47;99167.34;;;4.81;65.69
55604;BME280;41468;48.838;9.330;2023-04-03T06:38:13;99165.84;;;4.75;65.63
55604;BME280;41468;48.838;9.330;2023-04-03T06:40:40;99169.53;;;4.79;66.18
55604;BME280;41468;48.838;9.330;2023-04-03T06:43:07;99171.81;;;4.86;65.53
55604;BME280;41468;48.838;9.330;2023-04-03T06:45:33;99176.78;;;4.93;65.78
55604;BME280;41468;48.838;9.330;2023-04-03T06:48:01;99170.94;;;4.99;66.25
55604;BME280;41468;48.838;9.330;2023-04-03T06:50:28;99174.00;;;5.06;65.15
55604;BME280;41468;48.838;9.330;2023-04-03T06:52:54;99168.09;;;5.04;64.92
55604;BME280;41468;48.838;9.330;2023-04-03T06:55:21;99171.34;;;5.15;65.25
55604;BME280;41468;48.838;9.330;2023-04-03T06:57:48;99174.38;;;5.14;64.39
55604;BME280;41468;48.838;9.330;2023-04-03T07:00:15;99172.84;;;5.21;63.78
55604;BME280;41468;48.838;9.330;2023-04-03T07:02:42;99178.84;;;5.18;65.47
55604;BME280;41468;48.838;9.330;2023-04-03T07:05:09;99181.72;;;5.13;65.35
55604;BME280;41468;48.838;9.330;2023-04-03T07:07:36;99185.28;;;5.31;64.83
55604;BME280;41468;48.838;9.330;2023-04-03T07:10:07;99183.88;;;5.34;65.22
55604;BME280;41468;48.838;9.330;2023-04-03T07:12:34;99181.84;;;5.48;62.92
55604;BME280;41468;48.838;9.330;2023-04-03T07:15:01;99189.84;;;5.53;63.23
55604;BME280;41468;48.838;9.330;2023-04-03T07:17:32;99192.41;;;5.58;63.35
55604;BME280;41468;48.838;9.330;2023-04-03T07:20:06;99191.81;;;5.30;64.33
55604;BME280;41468;48.838;9.330;2023-04-03T07:22:33;99188.91;;;5.58;64.39
55604;BME280;41468;48.838;9.330;2023-04-03T07:24:59;99185.78;;;5.64;64.62
55604;BME280;41468;48.838;9.330;2023-04-03T07:27:26;99192.00;;;5.73;63.94
55604;BME280;41468;48.838;9.330;2023-04-03T07:29:53;99193.44;;;5.71;64.85
55604;BME280;41468;48.838;9.330;2023-04-03T07:32:21;99195.22;;;5.75;64.28
55604;BME280;41468;48.838;9.330;2023-04-03T07:34:48;99196.03;;;5.85;63.46
55604;BME280;41468;48.838;9.330;2023-04-03T07:37:15;99198.19;;;5.96;63.69
55604;BME280;41468;48.838;9.330;2023-04-03T07:39:44;99198.06;;;5.79;62.61
55604;BME280;41468;48.838;9.330;2023-04-03T07:42:11;99205.41;;;5.79;62.66
55604;BME280;41468;48.838;9.330;2023-04-03T07:44:38;99199.09;;;5.92;63.42
55604;BME280;41468;48.838;9.330;2023-04-03T07:47:05;99201.59;;;5.80;62.99
55604;BME280;41468;48.838;9.330;2023-04-03T07:49:32;99211.41;;;5.98;63.75
55604;BME280;41468;48.838;9.330;2023-04-03T07:51:59;99209.34;;;6.04;63.43
55604;BME280;41468;48.838;9.330;2023-04-03T07:54:26;99207.00;;;6.28;62.49
55604;BME280;41468;48.838;9.330;2023-04-03T07:56:53;99210.03;;;6.18;63.20
55604;BME280;41468;48.838;9.330;2023-04-03T07:59:20;99210.03;;;6.18;63.72
55604;BME280;41468;48.838;9.330;2023-04-03T08:01:46;99206.19;;;6.10;62.63
55604;BME280;41468;48.838;9.330;2023-04-03T08:04:13;99210.16;;;6.13;63.72
55604;BME280;41468;48.838;9.330;2023-04-03T08:06:40;99201.91;;;6.27;62.62
55604;BME280;41468;48.838;9.330;2023-04-03T08:09:14;99212.75;;;6.18;62.74
55604;BME280;41468;48.838;9.330;2023-04-03T08:11:42;99218.47;;;6.16;63.40
55604;BME280;41468;48.838;9.330;2023-04-03T08:14:09;99224.84;;;6.20;63.40
55604;BME280;41468;48.838;9.330;2023-04-03T08:16:43;99213.69;;;6.13;63.99
55604;BME280;41468;48.838;9.330;2023-04-03T08:19:10;99219.78;;;6.45;63.56
55604;BME280;41468;48.838;9.330;2023-04-03T08:21:48;99221.53;;;6.41;62.56
55604;BME280;41468;48.838;9.330;2023-04-03T08:24:14;99217.22;;;6.40;62.18
55604;BME280;41468;48.838;9.330;2023-04-03T08:26:41;99218.66;;;6.46;61.46
55604;BME280;41468;48.838;9.330;2023-04-03T08:29:08;99208.75;;;6.33;62.01
55604;BME280;41468;48.838;9.330;2023-04-03T08:31:35;99220.25;;;6.21;62.88
55604;BME280;41468;48.838;9.330;2023-04-03T08:34:01;99217.19;;;6.14;62.09
55604;BME280;41468;48.838;9.330;2023-04-03T08:36:29;99219.53;;;6.07;61.81
55604;BME280;41468;48.838;9.330;2023-04-03T08:38:56;99216.03;;;6.06;61.19
55604;BME280;41468;48.838;9.330;2023-04-03T08:41:39;99208.31;;;6.48;62.94
55604;BME280;41468;48.838;9.330;2023-04-03T08:50:00;99212.84;;;8.41;56.21
55604;BME280;41468;48.838;9.330;2023-04-03T08:52:37;99210.94;;;8.62;55.90
55604;BME280;41468;48.838;9.330;2023-04-03T08:55:13;99212.78;;;8.50;54.61
55604;BME280;41468;48.838;9.330;2023-04-03T08:57:44;99222.88;;;7.90;54.66
55604;BME280;41468;48.838;9.330;2023-04-03T09:00:18;99216.41;;;7.65;54.98
55604;BME280;41468;48.838;9.330;2023-04-03T09:02:48;99218.72;;;7.45;55.13
55604;BME280;41468;48.838;9.330;2023-04-03T09:05:20;99218.28;;;7.35;58.52
55604;BME280;41468;48.838;9.330;2023-04-03T09:08:33;99227.63;;;7.55;55.60
55604;BME280;41468;48.838;9.330;2023-04-03T09:11:04;99239.69;;;7.83;56.32
55604;BME280;41468;48.838;9.330;2023-04-03T09:14:02;99219.22;;;8.15;55.08
55604;BME280;41468;48.838;9.330;2023-04-03T09:16:56;99228.47;;;7.93;55.24
55604;BME280;41468;48.838;9.330;2023-04-03T09:22:13;99234.56;;;7.35;54.38
55604;BME280;41468;48.838;9.330;2023-04-03T09:25:04;99215.69;;;7.47;56.45
55604;BME280;41468;48.838;9.330;2023-04-03T09:27:32;99230.28;;;7.25;56.79
55604;BME280;41468;48.838;9.330;2023-04-03T09:29:59;99219.41;;;7.34;56.85
55604;BME280;41468;48.838;9.330;2023-04-03T09:32:27;99224.81;;;7.42;56.16
55604;BME280;41468;48.838;9.330;2023-04-03T09:34:57;99212.00;;;7.51;56.92
55604;BME280;41468;48.838;9.330;2023-04-03T09:37:43;99215.25;;;7.36;57.13
55604;BME280;41468;48.838;9.330;2023-04-03T09:42:57;99223.28;;;7.06;57.53
55604;BME280;41468;48.838;9.330;2023-04-03T09:48:17;99227.72;;;7.20;56.83
55604;BME280;41468;48.838;9.330;2023-04-03T09:56:00;99224.06;;;7.24;58.92
55604;BME280;41468;48.838;9.330;2023-04-03T09:58:38;99231.91;;;7.08;57.41
55604;BME280;41468;48.838;9.330;2023-04-03T10:01:29;99229.22;;;7.00;58.22
55604;BME280;41468;48.838;9.330;2023-04-03T10:06:38;99225.84;;;6.94;58.47
55604;BME280;41468;48.838;9.330;2023-04-03T10:09:26;99225.25;;;6.80;57.79
55604;BME280;41468;48.838;9.330;2023-04-03T10:14:35;99219.31;;;6.78;56.43
55604;BME280;41468;48.838;9.330;2023-04-03T10:17:19;99220.09;;;6.87;56.88
55604;BME280;41468;48.838;9.330;2023-04-03T10:20:21;99206.38;;;6.92;57.72
55604;BME280;41468;48.838;9.330;2023-04-03T10:23:14;99217.25;;;6.83;57.01
55604;BME280;41468;48.838;9.330;2023-04-03T10:31:18;99212.47;;;6.72;55.99
55604;BME280;41468;48.838;9.330;2023-04-03T10:34:06;99205.88;;;6.90;56.57
55604;BME280;41468;48.838;9.330;2023-04-03T10:41:53;99207.34;;;6.79;54.90
55604;BME280;41468;48.838;9.330;2023-04-03T10:47:44;99200.28;;;7.13;54.08
55604;BME280;41468;48.838;9.330;2023-04-03T10:50:36;99203.34;;;6.94;54.56
55604;BME280;41468;48.838;9.330;2023-04-03T10:56:12;99202.69;;;7.05;51.82
55604;BME280;41468;48.838;9.330;2023-04-03T10:58:45;99203.16;;;6.90;48.70
55604;BME280;41468;48.838;9.330;2023-04-03T11:01:18;99202.22;;;6.86;49.23
55604;BME280;41468;48.838;9.330;2023-04-03T11:03:50;99208.13;;;6.97;48.14
55604;BME280;41468;48.838;9.330;2023-04-03T11:06:21;99206.84;;;7.03;47.75
55604;BME280;41468;48.838;9.330;2023-04-03T11:08:57;99197.41;;;7.18;51.02
55604;BME280;41468;48.838;9.330;2023-04-03T11:11:31;99190.22;;;7.13;53.78
55604;BME280;41468;48.838;9.330;2023-04-03T11:16:42;99198.38;;;6.96;54.78
55604;BME280;41468;48.838;9.330;2023-04-03T11:19:21;99214.50;;;6.92;54.12
55604;BME280;41468;48.838;9.330;2023-04-03T11:22:04;99200.97;;;6.75;53.21
55604;BME280;41468;48.838;9.330;2023-04-03T11:24:36;99195.94;;;7.12;55.05
55604;BME280;41468;48.838;9.330;2023-04-03T11:27:05;99191.13;;;7.26;55.68
55604;BME280;41468;48.838;9.330;2023-04-03T11:29:35;99191.59;;;7.37;54.89
55604;BME280;41468;48.838;9.330;2023-04-03T11:32:25;99192.03;;;7.47;54.31
55604;BME280;41468;48.838;9.330;2023-04-03T11:34:56;99191.69;;;7.58;52.53
55604;BME280;41468;48.838;9.330;2023-04-03T11:40:24;99188.97;;;7.58;52.75
55604;BME280;41468;48.838;9.330;2023-04-03T11:43:03;99185.41;;;7.66;51.58
55604;BME280;41468;48.838;9.330;2023-04-03T11:45:36;99177.38;;;7.22;53.34
55604;BME280;41468;48.838;9.330;2023-04-03T11:53:41;99185.56;;;7.14;54.58
55604;BME280;41468;48.838;9.330;2023-04-03T12:01:57;99165.00;;;7.51;52.77
55604;BME280;41468;48.838;9.330;2023-04-03T12:04:26;99164.16;;;7.59;51.59
55604;BME280;41468;48.838;9.330;2023-04-03T12:07:16;99158.13;;;8.34;52.60
55604;BME280;41468;48.838;9.330;2023-04-03T12:12:30;99165.19;;;8.05;49.31
55604;BME280;41468;48.838;9.330;2023-04-03T12:15:21;99163.56;;;7.83;48.13
55604;BME280;41468;48.838;9.330;2023-04-03T12:17:48;99162.53;;;7.67;48.77
55604;BME280;41468;48.838;9.330;2023-04-03T12:23:34;99160.59;;;7.29;50.55
55604;BME280;41468;48.838;9.330;2023-04-03T12:28:45;99163.41;;;7.41;51.08
55604;BME280;41468;48.838;9.330;2023-04-03T12:31:13;99153.16;;;7.56;51.80
55604;BME280;41468;48.838;9.330;2023-04-03T12:36:33;99151.66;;;7.67;49.61
55604;BME280;41468;48.838;9.330;2023-04-03T12:41:45;99164.44;;;7.28;51.24
55604;BME280;41468;48.838;9.330;2023-04-03T12:44:37;99156.94;;;7.25;49.91
55604;BME280;41468;48.838;9.330;2023-04-03T12:47:19;99151.94;;;7.36;49.07
55604;BME280;41468;48.838;9.330;2023-04-03T12:49:49;99152.53;;;7.03;48.21
55604;BME280;41468;48.838;9.330;2023-04-03T12:52:32;99151.19;;;7.26;48.43
55604;BME280;41468;48.838;9.330;2023-04-03T12:55:18;99150.66;;;7.42;47.60
55604;BME280;41468;48.838;9.330;2023-04-03T12:57:45;99140.09;;;7.40;48.82
55604;BME280;41468;48.838;9.330;2023-04-03T13:00:39;99140.34;;;7.56;50.56
55604;BME280;41468;48.838;9.330;2023-04-03T13:03:20;99139.75;;;7.50;49.73
55604;BME280;41468;48.838;9.330;2023-04-03T13:05:48;99138.94;;;7.50;51.10
55604;BME280;41468;48.838;9.330;2023-04-03T13:08:15;99134.97;;;7.47;50.12
55604;BME280;41468;48.838;9.330;2023-04-03T13:11:11;99140.94;;;7.32;50.55
55604;BME280;41468;48.838;9.330;2023-04-03T13:13:38;99138.53;;;7.30;51.08
55604;BME280;41468;48.838;9.330;2023-04-03T13:16:11;99137.03;;;7.50;52.14
55604;BME280;41468;48.838;9.330;2023-04-03T13:18:38;99127.56;;;7.57;50.84
55604;BME280;41468;48.838;9.330;2023-04-03T13:21:08;99126.94;;;7.81;49.18
55604;BME280;41468;48.838;9.330;2023-04-03T13:23:43;99132.94;;;7.95;49.45
55604;BME280;41468;48.838;9.330;2023-04-03T13:26:11;99129.22;;;8.00;48.34
55604;BME280;41468;48.838;9.330;2023-04-03T13:28:39;99124.06;;;8.07;47.90
55604;BME280;41468;48.838;9.330;2023-04-03T13:33:54;99121.19;;;7.82;48.30
55604;BME280;41468;48.838;9.330;2023-04-03T13:36:24;99117.53;;;7.78;48.71
55604;BME280;41468;48.838;9.330;2023-04-03T13:41:47;99115.66;;;7.70;49.41
55604;BME280;41468;48.838;9.330;2023-04-03T13:44:26;99115.84;;;7.65;48.91
55604;BME280;41468;48.838;9.330;2023-04-03T13:49:42;99114.44;;;7.59;49.14
55604;BME280;41468;48.838;9.330;2023-04-03T13:52:33;99124.88;;;7.48;48.92
55604;BME280;41468;48.838;9.330;2023-04-03T13:55:21;99122.47;;;7.55;50.13
55604;BME280;41468;48.838;9.330;2023-04-03T14:06:18;99117.44;;;7.95;47.54
55604;BME280;41468;48.838;9.330;2023-04-03T14:08:45;99124.19;;;8.10;47.59
55604;BME280;41468;48.838;9.330;2023-04-03T14:11:15;99128.47;;;8.20;46.75
55604;BME280;41468;48.838;9.330;2023-04-03T14:13:44;99126.59;;;8.12;46.05
55604;BME280;41468;48.838;9.330;2023-04-03T14:16:18;99124.78;;;7.65;45.10
55604;BME280;41468;48.838;9.330;2023-04-03T14:18:47;99115.50;;;7.96;47.39
55604;BME280;41468;48.838;9.330;2023-04-03T14:21:16;99127.09;;;8.05;46.86
55604;BME280;41468;48.838;9.330;2023-04-03T14:23:43;99118.69;;;7.98;45.88
55604;BME280;41468;48.838;9.330;2023-04-03T14:26:18;99107.00;;;7.97;46.27
55604;BME280;41468;48.838;9.330;2023-04-03T14:28:49;99113.97;;;7.86;46.60
55604;BME280;41468;48.838;9.330;2023-04-03T14:31:18;99108.72;;;7.81;47.31
55604;BME280;41468;48.838;9.330;2023-04-03T14:33:46;99099.03;;;7.92;47.87
55604;BME280;41468;48.838;9.330;2023-04-03T14:36:23;99101.31;;;7.90;46.32
55604;BME280;41468;48.838;9.330;2023-04-03T14:38:52;99096.16;;;7.68;45.52
55604;BME280;41468;48.838;9.330;2023-04-03T14:41:21;99095.50;;;7.71;46.63
55604;BME280;41468;48.838;9.330;2023-04-03T14:43:49;99106.06;;;7.72;46.13
55604;BME280;41468;48.838;9.330;2023-04-03T14:46:31;99099.63;;;7.77;46.83
55604;BME280;41468;48.838;9.330;2023-04-03T14:49:20;99101.22;;;7.78;45.08
55604;BME280;41468;48.838;9.330;2023-04-03T14:51:48;99098.44;;;7.87;45.93
55604;BME280;41468;48.838;9.330;2023-04-03T14:54:17;99088.75;;;8.19;46.05
55604;BME280;41468;48.838;9.330;2023-04-03T14:56:45;99098.44;;;8.08;45.45
55604;BME280;41468;48.838;9.330;2023-04-03T14:59:12;99085.44;;;7.92;44.26